createdAt,value
2023-01-17T00:03:40.529Z,3.74
2023-01-17T00:18:39.897Z,3.68
2023-01-17T00:33:40.394Z,0.06
2023-01-17T00:48:40.540Z,0
2023-01-17T01:03:39.855Z,0
2023-01-17T01:18:40.056Z,0
2023-01-17T01:34:17.370Z,0
2023-01-17T01:49:19.464Z,0
2023-01-17T02:03:40.087Z,0
2023-01-17T02:18:40.443Z,1.77
2023-01-17T02:33:39.929Z,0.05
2023-01-17T02:48:40.390Z,0
2023-01-17T03:03:45.080Z,0
2023-01-17T03:18:40.814Z,0
2023-01-17T03:33:40.505Z,0.99
2023-01-17T03:48:40.302Z,0.01
2023-01-17T04:03:41.760Z,0.54
2023-01-17T04:18:40.352Z,0.26
2023-01-17T04:33:40.459Z,0.04
2023-01-17T04:48:40.226Z,0
2023-01-17T05:03:40.273Z,1.51
2023-01-17T05:18:40.201Z,0.7
2023-01-17T05:33:40.437Z,1.18
2023-01-17T05:48:39.912Z,2.2
2023-01-17T06:03:40.277Z,5.88
2023-01-17T06:18:39.969Z,19.19
2023-01-17T06:48:40.478Z,9.17
2023-01-17T07:03:40.065Z,15.05
2023-01-17T07:18:40.156Z,21.61
2023-01-17T07:33:40.524Z,25.05
2023-01-17T07:48:40.436Z,0.95
2023-01-17T08:03:40.482Z,10.07
2023-01-17T08:18:39.916Z,10.4
2023-01-17T08:33:40.219Z,20.44
2023-01-17T08:48:40.360Z,4.21
2023-01-17T09:03:41.007Z,3.05
2023-01-17T09:18:40.483Z,7.2
2023-01-17T09:33:40.907Z,15.63
2023-01-17T09:48:40.191Z,13.59
2023-01-17T10:03:40.815Z,6.95
2023-01-17T10:18:40.358Z,6.08
2023-01-17T10:33:40.631Z,3.61
2023-01-17T10:48:40.325Z,7.36
2023-01-17T11:03:40.644Z,8.79
2023-01-17T11:18:40.536Z,1.54
2023-01-17T11:33:40.111Z,14.19
2023-01-17T11:48:40.175Z,5.61
2023-01-17T12:03:41.020Z,3.62
2023-01-17T12:18:40.461Z,5.3
2023-01-17T12:33:40.750Z,5.9
2023-01-17T12:48:40.822Z,4.7
2023-01-17T13:03:40.094Z,1.89
2023-01-17T13:18:40.748Z,0.57
2023-01-17T13:33:40.587Z,6.05
2023-01-17T13:48:40.493Z,2.03
2023-01-17T14:03:39.975Z,11.9
2023-01-17T14:18:40.613Z,4.64
2023-01-17T14:33:40.373Z,13.8
2023-01-17T14:48:41.005Z,9.23
2023-01-17T15:33:40.065Z,7.82
2023-01-17T15:48:41.743Z,10.91
2023-01-17T16:03:40.281Z,19.83
2023-01-17T17:03:40.081Z,10.43
2023-01-17T17:18:40.364Z,5.86
2023-01-17T17:48:40.884Z,16.15
2023-01-17T18:03:40.792Z,20.98
2023-01-17T18:18:40.727Z,10.78
2023-01-17T18:33:40.053Z,24.01
2023-01-17T19:03:40.154Z,28.61
2023-01-17T19:18:40.091Z,23.28
2023-01-17T19:33:40.515Z,9.93
2023-01-17T19:48:40.209Z,11.97
2023-01-17T20:03:40.788Z,4.89
2023-01-17T20:33:40.601Z,19.06
2023-01-17T20:48:40.434Z,14.25
2023-01-17T21:03:40.620Z,20.26
2023-01-17T21:18:40.316Z,12.04
2023-01-17T21:33:40.247Z,9.85
2023-01-17T22:18:40.984Z,12.94
2023-01-17T22:48:40.410Z,8.87
2023-01-17T23:18:40.733Z,10.16
2023-01-17T23:33:41.368Z,12.4
2023-01-17T23:48:40.763Z,9.97
